createdAt,value
2018-06-30T00:01:17.542Z,8.43
2018-06-30T00:03:50.794Z,9.03
2018-06-30T00:06:18.264Z,11.40
2018-06-30T00:08:45.695Z,9.80
2018-06-30T00:11:13.206Z,9.67
2018-06-30T00:13:40.708Z,7.67
2018-06-30T00:16:08.137Z,6.97
2018-06-30T00:18:35.807Z,8.67
2018-06-30T00:21:03.297Z,7.90
2018-06-30T00:23:30.760Z,7.67
2018-06-30T00:25:58.252Z,10.50
2018-06-30T00:28:25.748Z,11.20
2018-06-30T00:30:53.215Z,8.37
2018-06-30T00:33:20.691Z,10.33
2018-06-30T00:35:48.149Z,9.10
2018-06-30T00:38:15.881Z,8.17
2018-06-30T00:40:43.295Z,8.43
2018-06-30T00:43:10.741Z,10.83
2018-06-30T00:45:38.198Z,10.83
2018-06-30T00:48:05.667Z,14.33
2018-06-30T00:50:33.154Z,11.33
2018-06-30T00:53:00.813Z,10.47
2018-06-30T00:55:28.682Z,10.80
2018-06-30T00:57:56.200Z,9.23
2018-06-30T01:00:23.632Z,10.00
2018-06-30T01:02:51.126Z,7.90
2018-06-30T01:05:18.814Z,10.83
2018-06-30T01:07:46.264Z,13.53
2018-06-30T01:10:13.726Z,10.80
2018-06-30T01:12:41.298Z,10.43
2018-06-30T01:15:08.761Z,9.70
2018-06-30T01:17:36.204Z,10.37
2018-06-30T01:20:04.699Z,10.03
2018-06-30T01:22:32.126Z,14.63
2018-06-30T01:24:59.607Z,12.00
2018-06-30T01:27:27.067Z,11.97
2018-06-30T01:29:54.564Z,10.70
2018-06-30T01:32:22.008Z,10.43
2018-06-30T01:34:49.448Z,13.57
2018-06-30T01:37:16.875Z,8.47
2018-06-30T01:39:44.284Z,9.73
2018-06-30T01:42:11.785Z,8.57
2018-06-30T01:44:39.184Z,12.67
2018-06-30T01:47:06.636Z,11.83
2018-06-30T01:49:34.144Z,9.67
2018-06-30T01:52:01.653Z,12.83
2018-06-30T01:54:29.185Z,10.33
2018-06-30T01:56:56.682Z,11.67
2018-06-30T01:59:24.155Z,12.03
2018-06-30T02:01:51.615Z,9.10
2018-06-30T02:04:19.101Z,13.17
2018-06-30T02:06:46.588Z,12.57
2018-06-30T02:09:15.172Z,12.80
2018-06-30T02:11:42.616Z,12.33
2018-06-30T02:14:10.086Z,10.50
2018-06-30T02:16:38.190Z,11.63
2018-06-30T02:19:05.878Z,10.73
2018-06-30T02:21:33.331Z,14.33
2018-06-30T02:24:00.724Z,11.13
2018-06-30T02:26:28.215Z,14.13
2018-06-30T02:28:55.667Z,11.17
2018-06-30T02:31:23.091Z,12.57
2018-06-30T02:33:50.777Z,12.30
2018-06-30T02:36:18.204Z,13.30
2018-06-30T02:38:45.649Z,11.43
2018-06-30T02:41:13.094Z,12.87
2018-06-30T02:43:40.547Z,14.13
2018-06-30T02:46:08.031Z,10.77
2018-06-30T02:48:35.471Z,11.70
2018-06-30T02:51:03.012Z,14.23
2018-06-30T02:53:30.454Z,11.47
2018-06-30T02:55:57.938Z,14.27
2018-06-30T02:58:25.388Z,14.00
2018-06-30T03:00:52.852Z,11.67
2018-06-30T03:03:20.295Z,12.83
2018-06-30T03:05:47.749Z,14.37
2018-06-30T03:08:15.231Z,11.90
2018-06-30T03:10:42.659Z,13.60
2018-06-30T03:13:10.090Z,13.00
2018-06-30T03:15:37.955Z,15.73
2018-06-30T03:18:05.488Z,13.27
2018-06-30T03:20:32.994Z,12.87
2018-06-30T03:23:00.482Z,14.60
2018-06-30T03:25:27.944Z,15.17
2018-06-30T03:27:55.396Z,11.60
2018-06-30T03:30:22.853Z,13.10
2018-06-30T03:32:50.305Z,14.50
2018-06-30T03:35:17.700Z,13.70
2018-06-30T03:37:45.160Z,13.93
2018-06-30T03:40:12.658Z,12.97
2018-06-30T03:42:40.145Z,15.73
2018-06-30T03:45:07.631Z,14.53
2018-06-30T03:47:35.120Z,14.27
2018-06-30T03:50:02.607Z,16.93
2018-06-30T03:52:30.074Z,14.30
2018-06-30T03:54:57.556Z,12.67
2018-06-30T03:57:25.011Z,14.80
2018-06-30T03:59:52.486Z,15.63
2018-06-30T04:02:19.944Z,14.40
2018-06-30T04:04:47.411Z,15.07
2018-06-30T04:07:14.901Z,16.10
2018-06-30T04:09:42.341Z,13.27
2018-06-30T04:12:09.818Z,16.37
2018-06-30T04:14:37.272Z,15.47
2018-06-30T04:17:04.929Z,19.30
2018-06-30T04:19:32.379Z,14.70
2018-06-30T04:21:59.893Z,17.63
2018-06-30T04:24:27.325Z,16.73
2018-06-30T04:26:54.833Z,16.03
2018-06-30T04:29:22.259Z,17.93
2018-06-30T04:31:49.698Z,17.10
2018-06-30T04:34:17.165Z,15.47
2018-06-30T04:36:44.604Z,16.37
2018-06-30T04:39:12.054Z,18.77
2018-06-30T04:41:39.516Z,19.43
2018-06-30T04:44:07.108Z,18.03
2018-06-30T04:46:34.544Z,13.33
2018-06-30T04:49:02.047Z,14.50
2018-06-30T04:51:29.497Z,15.17
2018-06-30T04:53:57.140Z,14.43
2018-06-30T04:56:24.897Z,16.73
2018-06-30T04:58:52.476Z,15.40
2018-06-30T05:01:19.971Z,13.53
2018-06-30T05:03:47.412Z,13.80
2018-06-30T05:06:14.909Z,14.93
2018-06-30T05:08:42.368Z,14.60
2018-06-30T05:11:09.831Z,17.37
2018-06-30T05:13:37.312Z,16.33
2018-06-30T05:16:05.148Z,15.67
2018-06-30T05:18:32.640Z,15.37
2018-06-30T05:21:00.231Z,17.30
2018-06-30T05:23:27.709Z,13.53
2018-06-30T05:25:55.176Z,14.93
2018-06-30T05:28:22.631Z,13.03
2018-06-30T05:30:50.057Z,14.27
2018-06-30T05:33:17.535Z,14.43
2018-06-30T05:35:45.072Z,13.97
2018-06-30T05:38:12.529Z,13.20
2018-06-30T05:40:39.969Z,11.43
2018-06-30T05:43:07.480Z,13.83
2018-06-30T05:45:34.992Z,12.40
2018-06-30T05:48:02.465Z,13.87
2018-06-30T05:50:29.908Z,11.67
2018-06-30T05:52:57.645Z,11.83
2018-06-30T05:55:25.205Z,11.73
2018-06-30T05:57:52.703Z,10.27
2018-06-30T06:00:20.191Z,10.27
2018-06-30T06:02:47.671Z,9.23
2018-06-30T06:05:15.142Z,11.73
2018-06-30T06:07:42.595Z,9.10
2018-06-30T06:10:10.193Z,10.77
2018-06-30T06:12:37.849Z,10.13
2018-06-30T06:15:05.343Z,7.90
2018-06-30T06:17:33.164Z,10.13
2018-06-30T06:20:00.624Z,9.30
2018-06-30T06:22:28.173Z,11.53
2018-06-30T06:24:55.757Z,9.27
2018-06-30T06:27:23.447Z,8.33
2018-06-30T06:29:51.291Z,10.30
2018-06-30T06:32:18.798Z,8.07
2018-06-30T06:34:47.006Z,7.10
2018-06-30T06:37:17.946Z,7.87
2018-06-30T06:39:45.737Z,9.83
2018-06-30T06:42:13.202Z,8.30
2018-06-30T06:44:41.164Z,6.43
2018-06-30T06:47:08.903Z,8.50
2018-06-30T06:49:36.347Z,8.67
2018-06-30T06:52:04.169Z,6.80
2018-06-30T06:54:31.658Z,7.60
2018-06-30T06:56:59.492Z,7.43
2018-06-30T06:59:27.004Z,7.60
2018-06-30T07:01:54.853Z,8.10
2018-06-30T07:04:22.662Z,8.85
2018-06-30T07:06:50.502Z,7.08
2018-06-30T07:09:18.016Z,6.90
2018-06-30T07:11:46.231Z,8.43
2018-06-30T07:14:14.674Z,11.90
2018-06-30T07:16:42.119Z,6.67
2018-06-30T07:19:10.014Z,8.73
2018-06-30T07:21:37.545Z,7.47
2018-06-30T07:24:05.379Z,8.37
2018-06-30T07:26:33.291Z,6.70
2018-06-30T07:29:01.100Z,7.22
2018-06-30T07:31:28.893Z,7.20
2018-06-30T07:33:56.651Z,6.95
2018-06-30T07:36:24.405Z,9.95
2018-06-30T07:38:52.147Z,6.13
2018-06-30T07:41:20.039Z,7.70
2018-06-30T07:43:47.555Z,6.80
2018-06-30T07:46:15.090Z,6.25
2018-06-30T07:48:42.664Z,6.15
2018-06-30T07:51:10.839Z,6.97
2018-06-30T07:53:38.499Z,6.10
2018-06-30T07:56:06.106Z,8.08
2018-06-30T07:58:33.819Z,8.18
2018-06-30T08:01:01.694Z,11.20
2018-06-30T08:03:29.432Z,6.45
2018-06-30T08:05:57.095Z,7.03
2018-06-30T08:08:24.751Z,7.53
2018-06-30T08:10:52.351Z,7.33
2018-06-30T08:13:19.955Z,9.13
2018-06-30T08:15:47.738Z,6.53
2018-06-30T08:18:16.124Z,5.57
2018-06-30T08:20:44.258Z,9.50
2018-06-30T08:23:12.013Z,7.77
2018-06-30T08:25:40.005Z,7.77
2018-06-30T08:28:07.531Z,8.17
2018-06-30T08:30:35.032Z,7.67
2018-06-30T08:33:02.999Z,6.27
2018-06-30T08:35:30.443Z,6.10
2018-06-30T08:37:57.967Z,6.40
2018-06-30T08:40:25.467Z,8.20
2018-06-30T08:42:52.955Z,6.53
2018-06-30T08:45:20.878Z,7.47
2018-06-30T08:47:48.525Z,6.70
2018-06-30T08:50:16.496Z,5.70
2018-06-30T08:52:44.034Z,7.90
2018-06-30T08:55:11.910Z,6.30
2018-06-30T08:57:39.373Z,6.13
2018-06-30T09:00:07.060Z,5.50
2018-06-30T09:02:34.711Z,6.33
2018-06-30T09:05:02.152Z,5.58
2018-06-30T09:07:29.787Z,5.58
2018-06-30T09:09:57.264Z,6.50
2018-06-30T09:12:24.725Z,8.13
2018-06-30T09:14:52.168Z,5.53
2018-06-30T09:17:19.856Z,5.42
2018-06-30T09:19:47.404Z,5.67
2018-06-30T09:22:14.877Z,6.20
2018-06-30T09:24:42.375Z,5.40
2018-06-30T09:27:10.488Z,6.22
2018-06-30T09:29:38.139Z,4.53
2018-06-30T09:32:05.912Z,4.85
2018-06-30T09:34:33.372Z,5.08
2018-06-30T09:37:00.815Z,7.15
2018-06-30T09:39:28.264Z,4.22
2018-06-30T09:41:55.830Z,5.60
2018-06-30T09:44:23.252Z,5.60
2018-06-30T09:46:50.709Z,5.62
2018-06-30T09:49:18.416Z,4.97
2018-06-30T09:51:45.816Z,6.78
2018-06-30T09:54:13.236Z,6.97
2018-06-30T09:56:40.750Z,10.15
2018-06-30T09:59:08.179Z,4.10
2018-06-30T10:01:35.593Z,4.35
2018-06-30T10:04:03.040Z,6.80
2018-06-30T10:06:32.389Z,3.95
2018-06-30T10:08:59.857Z,4.80
2018-06-30T10:11:27.342Z,4.45
2018-06-30T10:13:54.759Z,5.10
2018-06-30T10:16:22.261Z,4.00
2018-06-30T10:18:49.689Z,5.37
2018-06-30T10:21:17.163Z,4.45
2018-06-30T10:23:44.552Z,4.12
2018-06-30T10:26:12.103Z,6.60
2018-06-30T10:28:39.600Z,3.60
2018-06-30T10:31:07.061Z,3.77
2018-06-30T10:33:34.517Z,5.03
2018-06-30T10:36:02.851Z,5.67
2018-06-30T10:38:30.306Z,4.80
2018-06-30T10:40:57.716Z,5.72
2018-06-30T10:43:25.155Z,4.95
2018-06-30T10:45:52.626Z,5.22
2018-06-30T10:48:20.131Z,5.35
2018-06-30T10:50:47.580Z,5.33
2018-06-30T10:53:15.321Z,5.87
2018-06-30T10:55:42.820Z,5.00
2018-06-30T10:58:10.292Z,4.08
2018-06-30T11:00:38.226Z,4.58
2018-06-30T11:03:05.776Z,4.05
2018-06-30T11:05:33.197Z,5.40
2018-06-30T11:08:01.153Z,5.62
2018-06-30T11:10:30.208Z,3.85
2018-06-30T11:12:57.669Z,5.47
2018-06-30T11:15:25.099Z,3.35
2018-06-30T11:17:52.543Z,4.15
2018-06-30T11:20:20.007Z,3.00
2018-06-30T11:22:47.447Z,6.80
2018-06-30T11:25:14.855Z,3.85
2018-06-30T11:27:42.279Z,5.90
2018-06-30T11:30:09.769Z,2.87
2018-06-30T11:32:37.261Z,5.08
2018-06-30T11:35:05.202Z,3.58
2018-06-30T11:37:32.746Z,4.05
2018-06-30T11:40:00.234Z,3.75
2018-06-30T11:42:27.654Z,4.35
2018-06-30T11:44:55.089Z,3.08
2018-06-30T11:47:22.484Z,4.12
2018-06-30T11:49:50.009Z,4.30
2018-06-30T11:52:17.467Z,4.40
2018-06-30T11:54:44.955Z,3.55
2018-06-30T11:57:12.725Z,3.77
2018-06-30T11:59:40.598Z,3.67
2018-06-30T12:02:08.543Z,4.15
2018-06-30T12:04:36.248Z,3.42
2018-06-30T12:07:03.987Z,4.00
2018-06-30T12:09:31.441Z,4.35
2018-06-30T12:11:59.084Z,8.18
2018-06-30T12:14:26.575Z,3.47
2018-06-30T12:16:54.039Z,3.20
2018-06-30T12:19:21.503Z,2.90
2018-06-30T12:21:48.984Z,3.10
2018-06-30T12:24:16.491Z,5.50
2018-06-30T12:26:44.143Z,3.58
2018-06-30T12:29:11.631Z,2.77
2018-06-30T12:31:39.108Z,2.62
2018-06-30T12:34:06.555Z,3.15
2018-06-30T12:36:34.014Z,3.25
2018-06-30T12:39:01.563Z,4.30
2018-06-30T12:41:28.928Z,3.67
2018-06-30T12:43:56.390Z,2.60
2018-06-30T12:46:23.811Z,3.80
2018-06-30T12:48:51.279Z,2.58
2018-06-30T12:51:18.758Z,2.80
2018-06-30T12:53:46.279Z,2.40
2018-06-30T12:56:13.735Z,2.40
2018-06-30T12:58:41.181Z,4.20
2018-06-30T13:01:08.636Z,2.70
2018-06-30T13:03:36.335Z,3.05
2018-06-30T13:06:03.951Z,3.65
2018-06-30T13:08:31.422Z,2.08
2018-06-30T13:10:58.915Z,2.37
2018-06-30T13:13:26.643Z,1.90
2018-06-30T13:15:54.078Z,2.22
2018-06-30T13:18:21.552Z,2.17
2018-06-30T13:20:49.027Z,4.90
2018-06-30T13:23:16.690Z,1.90
2018-06-30T13:25:44.206Z,2.67
2018-06-30T13:28:11.724Z,2.35
2018-06-30T13:30:39.206Z,2.35
2018-06-30T13:33:06.778Z,2.67
2018-06-30T13:35:34.271Z,1.80
2018-06-30T13:38:02.073Z,2.17
2018-06-30T13:40:29.590Z,4.78
2018-06-30T13:42:57.076Z,1.62
2018-06-30T13:45:24.607Z,3.98
2018-06-30T13:47:52.095Z,1.77
2018-06-30T13:50:19.564Z,2.72
2018-06-30T13:52:47.109Z,1.50
2018-06-30T13:55:14.583Z,1.40
2018-06-30T13:57:42.211Z,2.60
2018-06-30T14:00:09.703Z,2.85
2018-06-30T14:02:37.179Z,1.47
2018-06-30T14:05:05.320Z,1.47
2018-06-30T14:07:32.999Z,1.40
2018-06-30T14:10:00.464Z,1.62
2018-06-30T14:12:27.908Z,3.02
2018-06-30T14:14:55.378Z,2.15
2018-06-30T14:17:22.916Z,1.62
2018-06-30T14:19:50.522Z,1.40
2018-06-30T14:22:18.041Z,2.50
2018-06-30T14:24:45.575Z,1.17
2018-06-30T14:27:13.083Z,2.37
2018-06-30T14:29:40.714Z,2.62
2018-06-30T14:32:08.163Z,1.07
2018-06-30T14:34:35.615Z,2.10
2018-06-30T14:37:03.109Z,1.17
2018-06-30T14:39:30.632Z,1.02
2018-06-30T14:41:58.161Z,0.82
2018-06-30T14:44:26.362Z,3.17
2018-06-30T14:46:54.222Z,1.50
2018-06-30T14:49:21.712Z,1.50
2018-06-30T14:51:49.247Z,1.42
2018-06-30T14:54:16.897Z,2.58
2018-06-30T14:56:44.512Z,0.80
2018-06-30T14:59:12.100Z,1.50
2018-06-30T15:01:39.556Z,1.05
2018-06-30T15:04:07.020Z,1.05
2018-06-30T15:06:34.488Z,0.80
2018-06-30T15:09:02.021Z,2.27
2018-06-30T15:11:29.491Z,1.37
2018-06-30T15:13:57.011Z,0.72
2018-06-30T15:16:24.511Z,1.27
2018-06-30T15:18:52.065Z,2.85
2018-06-30T15:21:19.583Z,4.53
2018-06-30T15:23:47.224Z,3.60
2018-06-30T15:26:14.808Z,1.62
2018-06-30T15:28:42.286Z,1.70
2018-06-30T15:31:09.788Z,1.87
2018-06-30T15:33:37.378Z,0.60
2018-06-30T15:36:04.980Z,0.93
2018-06-30T15:38:32.415Z,4.85
2018-06-30T15:40:59.881Z,0.75
2018-06-30T15:43:27.456Z,1.47
2018-06-30T15:45:55.100Z,1.40
2018-06-30T15:48:22.588Z,2.95
2018-06-30T15:50:50.118Z,0.93
2018-06-30T15:53:17.614Z,1.35
2018-06-30T15:55:45.134Z,1.00
2018-06-30T15:58:12.788Z,1.40
2018-06-30T16:00:40.396Z,0.98
2018-06-30T16:03:07.970Z,0.50
2018-06-30T16:05:35.426Z,0.70
2018-06-30T16:08:02.994Z,1.52
2018-06-30T16:10:30.564Z,0.85
2018-06-30T16:12:58.065Z,1.62
2018-06-30T16:15:25.516Z,4.67
2018-06-30T16:17:53.019Z,2.17
2018-06-30T16:20:20.635Z,2.60
2018-06-30T16:22:48.187Z,6.37
2018-06-30T16:25:15.658Z,17.85
2018-06-30T16:27:43.284Z,9.60
2018-06-30T16:30:10.880Z,2.80
2018-06-30T16:32:38.400Z,8.10
2018-06-30T16:35:05.918Z,2.50
2018-06-30T16:37:33.447Z,3.65
2018-06-30T16:40:00.935Z,13.25
2018-06-30T16:42:28.528Z,3.80
2018-06-30T16:44:56.077Z,3.12
2018-06-30T16:47:23.643Z,1.37
2018-06-30T16:49:51.168Z,0.57
2018-06-30T16:52:18.888Z,0.60
2018-06-30T16:54:46.324Z,1.45
2018-06-30T16:57:13.845Z,2.95
2018-06-30T16:59:41.328Z,1.75
2018-06-30T17:02:08.836Z,3.92
2018-06-30T17:04:36.352Z,4.90
2018-06-30T17:07:03.976Z,2.87
2018-06-30T17:09:31.508Z,2.87
2018-06-30T17:11:59.007Z,3.35
2018-06-30T17:14:26.500Z,3.10
2018-06-30T17:16:54.052Z,2.25
2018-06-30T17:19:21.648Z,1.15
2018-06-30T17:21:49.212Z,0.65
2018-06-30T17:24:16.739Z,0.88
2018-06-30T17:26:44.270Z,1.35
2018-06-30T17:29:11.787Z,2.10
2018-06-30T17:31:39.309Z,1.40
2018-06-30T17:34:06.799Z,1.15
2018-06-30T17:36:34.260Z,1.90
2018-06-30T17:39:01.862Z,0.75
2018-06-30T17:41:29.477Z,1.50
2018-06-30T17:43:56.960Z,2.00
2018-06-30T17:46:24.555Z,1.25
2018-06-30T17:48:51.987Z,2.45
2018-06-30T17:51:19.524Z,2.10
2018-06-30T17:53:47.240Z,2.27
2018-06-30T17:56:14.759Z,1.62
2018-06-30T17:58:42.273Z,1.85
2018-06-30T18:01:09.725Z,1.17
2018-06-30T18:03:37.211Z,2.95
2018-06-30T18:06:04.692Z,3.80
2018-06-30T18:08:32.425Z,1.47
2018-06-30T18:10:59.944Z,0.78
2018-06-30T18:13:27.413Z,1.27
2018-06-30T18:15:54.955Z,1.40
2018-06-30T18:18:22.415Z,3.70
2018-06-30T18:20:50.009Z,0.78
2018-06-30T18:23:17.437Z,1.27
2018-06-30T18:25:44.945Z,2.42
2018-06-30T18:28:12.654Z,0.80
2018-06-30T18:30:40.159Z,1.98
2018-06-30T18:33:07.719Z,1.07
2018-06-30T18:35:35.243Z,2.42
2018-06-30T18:38:02.843Z,3.70
2018-06-30T18:40:30.356Z,2.75
2018-06-30T18:42:58.238Z,1.77
2018-06-30T18:45:25.728Z,2.35
2018-06-30T18:47:53.169Z,2.12
2018-06-30T18:50:20.633Z,0.82
2018-06-30T18:52:48.208Z,0.80
2018-06-30T18:55:15.794Z,0.75
2018-06-30T18:57:43.359Z,1.30
2018-06-30T19:00:10.929Z,0.98
2018-06-30T19:02:38.436Z,1.25
2018-06-30T19:05:06.317Z,1.22
2018-06-30T19:07:33.853Z,1.05
2018-06-30T19:10:01.471Z,2.55
2018-06-30T19:12:29.017Z,1.17
2018-06-30T19:14:56.467Z,1.27
2018-06-30T19:17:23.953Z,1.12
2018-06-30T19:19:51.459Z,2.67
2018-06-30T19:22:18.994Z,1.40
2018-06-30T19:24:46.461Z,1.05
2018-06-30T19:27:13.946Z,1.45
2018-06-30T19:29:41.361Z,2.15
2018-06-30T19:32:08.831Z,1.10
2018-06-30T19:34:36.343Z,5.30
2018-06-30T19:37:03.949Z,5.83
2018-06-30T19:39:31.438Z,3.63
2018-06-30T19:41:58.970Z,3.83
2018-06-30T19:44:26.482Z,2.87
2018-06-30T19:46:53.919Z,2.07
2018-06-30T19:49:21.648Z,1.23
2018-06-30T19:51:49.431Z,1.70
2018-06-30T19:54:16.932Z,1.47
2018-06-30T19:56:44.435Z,1.00
2018-06-30T19:59:12.037Z,2.80
2018-06-30T20:01:39.520Z,1.43
2018-06-30T20:04:06.967Z,1.70
2018-06-30T20:06:34.537Z,0.90
2018-06-30T20:09:02.119Z,2.70
2018-06-30T20:11:30.431Z,2.60
2018-06-30T20:13:58.003Z,1.40
2018-06-30T20:16:25.491Z,1.70
2018-06-30T20:18:53.917Z,1.00
2018-06-30T20:21:21.423Z,1.00
2018-06-30T20:23:48.910Z,1.87
2018-06-30T20:26:16.386Z,1.33
2018-06-30T20:28:43.826Z,1.50
2018-06-30T20:31:11.288Z,1.33
2018-06-30T20:33:38.892Z,1.90
2018-06-30T20:36:06.398Z,3.10
2018-06-30T20:38:33.861Z,4.50
2018-06-30T20:41:01.353Z,1.23
2018-06-30T20:43:28.843Z,2.20
2018-06-30T20:45:56.305Z,0.93
2018-06-30T20:48:23.797Z,1.20
2018-06-30T20:50:51.292Z,0.80
2018-06-30T20:53:18.780Z,0.90
2018-06-30T20:55:46.238Z,2.20
2018-06-30T20:58:13.812Z,1.57
2018-06-30T21:00:41.342Z,1.40
2018-06-30T21:03:10.473Z,1.17
2018-06-30T21:05:38.057Z,3.60
2018-06-30T21:08:06.119Z,0.80
2018-06-30T21:10:33.657Z,1.17
2018-06-30T21:13:01.215Z,2.67
2018-06-30T21:15:28.728Z,2.97
2018-06-30T21:17:56.244Z,2.13
2018-06-30T21:20:23.735Z,0.90
2018-06-30T21:22:51.224Z,1.13
2018-06-30T21:25:19.112Z,0.90
2018-06-30T21:27:46.677Z,2.30
2018-06-30T21:30:14.234Z,0.90
2018-06-30T21:32:41.694Z,0.93
2018-06-30T21:35:09.158Z,0.97
2018-06-30T21:37:36.674Z,1.20
2018-06-30T21:40:04.203Z,2.27
2018-06-30T21:42:31.731Z,1.07
2018-06-30T21:44:59.369Z,1.20
2018-06-30T21:47:26.870Z,1.73
2018-06-30T21:49:54.400Z,2.10
2018-06-30T21:52:21.930Z,1.57
2018-06-30T21:54:49.442Z,2.10
2018-06-30T21:57:16.944Z,1.20
2018-06-30T21:59:44.462Z,0.90
2018-06-30T22:02:11.978Z,0.80
2018-06-30T22:04:39.510Z,0.90
2018-06-30T22:07:07.072Z,2.33
2018-06-30T22:09:34.566Z,1.27
2018-06-30T22:12:02.038Z,1.23
2018-06-30T22:14:29.571Z,0.90
2018-06-30T22:16:57.108Z,1.70
2018-06-30T22:19:24.621Z,1.03
2018-06-30T22:21:53.379Z,2.40
2018-06-30T22:24:21.043Z,0.87
2018-06-30T22:26:48.539Z,0.93
2018-06-30T22:29:16.019Z,0.97
2018-06-30T22:31:43.467Z,0.90
2018-06-30T22:34:10.998Z,1.67
2018-06-30T22:36:38.712Z,4.17
2018-06-30T22:39:08.236Z,1.50
2018-06-30T22:41:35.725Z,0.93
2018-06-30T22:44:03.704Z,1.57
2018-06-30T22:46:31.164Z,1.67
2018-06-30T22:48:58.760Z,0.87
2018-06-30T22:51:26.240Z,1.13
2018-06-30T22:53:53.749Z,1.50
2018-06-30T22:56:21.209Z,1.43
2018-06-30T22:58:48.877Z,1.67
2018-06-30T23:01:16.377Z,1.33
2018-06-30T23:03:43.816Z,0.90
2018-06-30T23:06:11.454Z,1.07
2018-06-30T23:08:44.785Z,2.87
2018-06-30T23:11:12.273Z,1.20
2018-06-30T23:13:39.746Z,2.50
2018-06-30T23:16:07.243Z,1.53
2018-06-30T23:18:34.724Z,1.80
2018-06-30T23:21:02.180Z,1.20
2018-06-30T23:23:29.632Z,1.47
2018-06-30T23:25:57.276Z,1.03
2018-06-30T23:28:24.730Z,1.33
2018-06-30T23:30:52.171Z,1.20
2018-06-30T23:33:19.675Z,1.50
2018-06-30T23:35:47.162Z,1.17
2018-06-30T23:38:14.596Z,1.43
2018-06-30T23:40:42.014Z,3.03
2018-06-30T23:43:09.523Z,1.20
2018-06-30T23:45:36.982Z,1.53
2018-06-30T23:48:04.917Z,2.00
2018-06-30T23:50:32.409Z,1.47
2018-06-30T23:52:59.860Z,1.10
2018-06-30T23:55:27.332Z,1.50
2018-06-30T23:57:55.197Z,1.00
